sensor_id;sensor_type;location;lat;lon;timestamp;P1;durP1;ratioP1;P2;durP2;ratioP2
58774;SDS011;44545;47.480;19.024;2023-09-19T03:24:16;11.27;;;3.95;;
58774;SDS011;44545;47.480;19.024;2023-09-19T03:27:18;10.45;;;4.55;;
58774;SDS011;44545;47.480;19.024;2023-09-19T03:30:22;11.23;;;5.20;;
58774;SDS011;44545;47.480;19.024;2023-09-19T03:33:25;10.82;;;4.15;;
58774;SDS011;44545;47.480;19.024;2023-09-19T03:36:30;8.68;;;4.25;;
58774;SDS011;44545;47.480;19.024;2023-09-19T03:39:35;7.97;;;4.85;;
58774;SDS011;44545;47.480;19.024;2023-09-19T03:42:39;7.72;;;4.43;;
58774;SDS011;44545;47.480;19.024;2023-09-19T03:45:43;6.07;;;3.90;;
58774;SDS011;44545;47.480;19.024;2023-09-19T03:48:47;4.90;;;3.50;;
58774;SDS011;44545;47.480;19.024;2023-09-19T03:51:49;10.00;;;4.15;;
58774;SDS011;44545;47.480;19.024;2023-09-19T03:54:52;7.40;;;4.45;;
58774;SDS011;44545;47.480;19.024;2023-09-19T03:57:54;6.68;;;3.45;;
58774;SDS011;44545;47.480;19.024;2023-09-19T04:00:57;6.28;;;4.05;;
58774;SDS011;44545;47.480;19.024;2023-09-19T04:04:01;10.57;;;4.30;;
58774;SDS011;44545;47.480;19.024;2023-09-19T04:07:10;5.05;;;3.50;;
58774;SDS011;44545;47.480;19.024;2023-09-19T04:10:13;9.05;;;3.80;;
58774;SDS011;44545;47.480;19.024;2023-09-19T04:13:16;8.95;;;3.83;;
58774;SDS011;44545;47.480;19.024;2023-09-19T04:16:19;5.82;;;3.50;;
58774;SDS011;44545;47.480;19.024;2023-09-19T04:19:21;7.70;;;3.83;;
58774;SDS011;44545;47.480;19.024;2023-09-19T04:22:24;6.22;;;4.28;;
58774;SDS011;44545;47.480;19.024;2023-09-19T04:25:26;8.40;;;4.22;;
58774;SDS011;44545;47.480;19.024;2023-09-19T04:28:30;7.53;;;3.65;;
58774;SDS011;44545;47.480;19.024;2023-09-19T04:31:33;7.05;;;3.47;;
58774;SDS011;44545;47.480;19.024;2023-09-19T04:34:36;10.23;;;3.78;;
58774;SDS011;44545;47.480;19.024;2023-09-19T04:37:40;7.45;;;3.85;;
58774;SDS011;44545;47.480;19.024;2023-09-19T04:40:44;7.55;;;3.95;;
58774;SDS011;44545;47.480;19.024;2023-09-19T04:43:47;11.50;;;3.72;;
58774;SDS011;44545;47.480;19.024;2023-09-19T04:46:49;6.55;;;3.85;;
58774;SDS011;44545;47.480;19.024;2023-09-19T04:49:52;5.45;;;2.62;;
58774;SDS011;44545;47.480;19.024;2023-09-19T04:52:55;4.45;;;2.50;;
58774;SDS011;44545;47.480;19.024;2023-09-19T04:55:57;4.95;;;2.03;;
58774;SDS011;44545;47.480;19.024;2023-09-19T04:59:00;6.15;;;1.45;;
58774;SDS011;44545;47.480;19.024;2023-09-19T05:02:02;2.17;;;1.00;;
58774;SDS011;44545;47.480;19.024;2023-09-19T05:05:06;1.80;;;0.77;;
58774;SDS011;44545;47.480;19.024;2023-09-19T05:08:09;1.52;;;0.85;;
58774;SDS011;44545;47.480;19.024;2023-09-19T05:11:12;1.50;;;0.75;;
58774;SDS011;44545;47.480;19.024;2023-09-19T05:14:14;0.77;;;0.55;;
58774;SDS011;44545;47.480;19.024;2023-09-19T05:17:17;2.78;;;0.50;;
58774;SDS011;44545;47.480;19.024;2023-09-19T05:20:19;1.08;;;0.52;;
58774;SDS011;44545;47.480;19.024;2023-09-19T05:23:32;0.30;;;0.22;;
58774;SDS011;44545;47.480;19.024;2023-09-19T05:26:34;1.65;;;0.85;;
58774;SDS011;44545;47.480;19.024;2023-09-19T05:29:37;0.85;;;0.57;;
58774;SDS011;44545;47.480;19.024;2023-09-19T05:32:39;0.98;;;0.60;;
58774;SDS011;44545;47.480;19.024;2023-09-19T05:35:42;1.65;;;0.50;;
58774;SDS011;44545;47.480;19.024;2023-09-19T05:38:44;0.90;;;0.52;;
58774;SDS011;44545;47.480;19.024;2023-09-19T05:41:47;0.68;;;0.50;;
58774;SDS011;44545;47.480;19.024;2023-09-19T05:44:50;0.73;;;0.57;;
58774;SDS011;44545;47.480;19.024;2023-09-19T05:47:53;0.15;;;0.15;;
58774;SDS011;44545;47.480;19.024;2023-09-19T05:51:06;1.27;;;0.30;;
58774;SDS011;44545;47.480;19.024;2023-09-19T05:54:08;0.55;;;0.28;;
58774;SDS011;44545;47.480;19.024;2023-09-19T05:57:13;0.45;;;0.30;;
58774;SDS011;44545;47.480;19.024;2023-09-19T06:00:15;0.73;;;0.37;;
58774;SDS011;44545;47.480;19.024;2023-09-19T06:03:23;1.48;;;0.62;;
58774;SDS011;44545;47.480;19.024;2023-09-19T06:06:26;0.20;;;0.20;;
58774;SDS011;44545;47.480;19.024;2023-09-19T06:09:29;0.80;;;0.50;;
58774;SDS011;44545;47.480;19.024;2023-09-19T06:12:37;2.10;;;0.60;;
58774;SDS011;44545;47.480;19.024;2023-09-19T06:15:46;0.73;;;0.37;;
58774;SDS011;44545;47.480;19.024;2023-09-19T06:18:51;0.28;;;0.13;;
58774;SDS011;44545;47.480;19.024;2023-09-19T06:21:55;0.80;;;0.35;;
58774;SDS011;44545;47.480;19.024;2023-09-19T06:24:57;1.33;;;0.47;;
58774;SDS011;44545;47.480;19.024;2023-09-19T06:28:00;0.88;;;0.57;;
58774;SDS011;44545;47.480;19.024;2023-09-19T06:31:06;0.77;;;0.32;;
58774;SDS011;44545;47.480;19.024;2023-09-19T06:34:12;0.35;;;0.20;;
58774;SDS011;44545;47.480;19.024;2023-09-19T06:37:17;0.30;;;0.20;;
58774;SDS011;44545;47.480;19.024;2023-09-19T06:40:20;0.20;;;0.20;;
58774;SDS011;44545;47.480;19.024;2023-09-19T06:43:23;0.80;;;0.28;;
58774;SDS011;44545;47.480;19.024;2023-09-19T06:46:26;0.10;;;0.10;;
58774;SDS011;44545;47.480;19.024;2023-09-19T06:49:34;0.08;;;0.03;;
58774;SDS011;44545;47.480;19.024;2023-09-19T06:52:37;0.32;;;0.25;;
58774;SDS011;44545;47.480;19.024;2023-09-19T06:55:39;0.30;;;0.22;;
58774;SDS011;44545;47.480;19.024;2023-09-19T06:58:42;0.10;;;0.10;;
58774;SDS011;44545;47.480;19.024;2023-09-19T07:01:45;0.55;;;0.20;;
58774;SDS011;44545;47.480;19.024;2023-09-19T07:04:49;0.10;;;0.10;;
58774;SDS011;44545;47.480;19.024;2023-09-19T07:07:52;1.20;;;0.20;;
58774;SDS011;44545;47.480;19.024;2023-09-19T07:10:56;0.35;;;0.10;;
58774;SDS011;44545;47.480;19.024;2023-09-19T07:13:58;0.13;;;0.10;;
58774;SDS011;44545;47.480;19.024;2023-09-19T07:17:00;0.37;;;0.10;;
58774;SDS011;44545;47.480;19.024;2023-09-19T07:20:03;0.70;;;0.20;;
58774;SDS011;44545;47.480;19.024;2023-09-19T07:23:10;0.30;;;0.20;;
58774;SDS011;44545;47.480;19.024;2023-09-19T07:26:12;0.60;;;0.17;;
58774;SDS011;44545;47.480;19.024;2023-09-19T07:29:15;0.93;;;0.50;;
58774;SDS011;44545;47.480;19.024;2023-09-19T07:32:18;0.43;;;0.30;;
58774;SDS011;44545;47.480;19.024;2023-09-19T07:35:20;0.50;;;0.20;;
58774;SDS011;44545;47.480;19.024;2023-09-19T07:38:23;0.40;;;0.22;;
58774;SDS011;44545;47.480;19.024;2023-09-19T07:41:29;1.65;;;0.20;;
58774;SDS011;44545;47.480;19.024;2023-09-19T07:44:34;0.30;;;0.20;;
58774;SDS011;44545;47.480;19.024;2023-09-19T07:47:38;0.80;;;0.33;;
58774;SDS011;44545;47.480;19.024;2023-09-19T07:50:41;0.20;;;0.20;;
58774;SDS011;44545;47.480;19.024;2023-09-19T07:53:45;1.83;;;0.40;;
58774;SDS011;44545;47.480;19.024;2023-09-19T07:56:50;0.45;;;0.37;;
58774;SDS011;44545;47.480;19.024;2023-09-19T07:59:52;1.83;;;0.55;;
58774;SDS011;44545;47.480;19.024;2023-09-19T08:02:55;0.80;;;0.52;;
58774;SDS011;44545;47.480;19.024;2023-09-19T08:06:05;0.45;;;0.28;;
58774;SDS011;44545;47.480;19.024;2023-09-19T08:09:08;1.02;;;0.60;;
58774;SDS011;44545;47.480;19.024;2023-09-19T08:12:13;0.95;;;0.40;;
58774;SDS011;44545;47.480;19.024;2023-09-19T08:15:17;1.70;;;0.55;;
58774;SDS011;44545;47.480;19.024;2023-09-19T08:18:22;0.93;;;0.47;;
58774;SDS011;44545;47.480;19.024;2023-09-19T08:21:24;0.75;;;0.22;;
58774;SDS011;44545;47.480;19.024;2023-09-19T08:24:28;0.43;;;0.40;;
58774;SDS011;44545;47.480;19.024;2023-09-19T08:27:31;0.52;;;0.40;;
58774;SDS011;44545;47.480;19.024;2023-09-19T08:30:34;1.15;;;0.37;;
58774;SDS011;44545;47.480;19.024;2023-09-19T08:33:36;1.90;;;1.02;;
58774;SDS011;44545;47.480;19.024;2023-09-19T08:36:40;1.23;;;0.50;;
58774;SDS011;44545;47.480;19.024;2023-09-19T08:39:45;0.95;;;0.43;;
58774;SDS011;44545;47.480;19.024;2023-09-19T08:45:58;0.52;;;0.25;;
58774;SDS011;44545;47.480;19.024;2023-09-19T08:53:00;0.88;;;0.50;;
58774;SDS011;44545;47.480;19.024;2023-09-19T08:56:07;1.02;;;0.40;;
58774;SDS011;44545;47.480;19.024;2023-09-19T08:59:12;1.55;;;0.65;;
58774;SDS011;44545;47.480;19.024;2023-09-19T09:02:16;1.02;;;0.35;;
58774;SDS011;44545;47.480;19.024;2023-09-19T09:05:20;0.60;;;0.57;;
58774;SDS011;44545;47.480;19.024;2023-09-19T09:08:25;0.85;;;0.40;;
58774;SDS011;44545;47.480;19.024;2023-09-19T09:11:28;1.98;;;0.80;;
58774;SDS011;44545;47.480;19.024;2023-09-19T09:14:35;1.65;;;0.45;;
58774;SDS011;44545;47.480;19.024;2023-09-19T09:17:37;0.65;;;0.40;;
58774;SDS011;44545;47.480;19.024;2023-09-19T09:20:40;2.35;;;0.93;;
58774;SDS011;44545;47.480;19.024;2023-09-19T09:23:43;1.55;;;0.68;;
58774;SDS011;44545;47.480;19.024;2023-09-19T09:26:47;0.88;;;0.57;;
58774;SDS011;44545;47.480;19.024;2023-09-19T09:29:51;1.05;;;0.50;;
58774;SDS011;44545;47.480;19.024;2023-09-19T09:33:13;2.05;;;1.02;;
58774;SDS011;44545;47.480;19.024;2023-09-19T09:36:17;0.55;;;0.43;;
58774;SDS011;44545;47.480;19.024;2023-09-19T09:39:36;0.62;;;0.43;;
58774;SDS011;44545;47.480;19.024;2023-09-19T09:42:38;1.60;;;0.88;;
58774;SDS011;44545;47.480;19.024;2023-09-19T09:45:41;3.53;;;0.60;;
58774;SDS011;44545;47.480;19.024;2023-09-19T09:52:15;7.62;;;0.93;;
58774;SDS011;44545;47.480;19.024;2023-09-19T09:55:21;3.55;;;0.70;;
58774;SDS011;44545;47.480;19.024;2023-09-19T09:58:24;0.90;;;0.30;;
58774;SDS011;44545;47.480;19.024;2023-09-19T10:01:45;1.92;;;0.57;;
58774;SDS011;44545;47.480;19.024;2023-09-19T10:04:50;0.93;;;0.32;;
58774;SDS011;44545;47.480;19.024;2023-09-19T10:08:13;0.98;;;0.55;;
58774;SDS011;44545;47.480;19.024;2023-09-19T10:11:21;1.27;;;0.77;;
58774;SDS011;44545;47.480;19.024;2023-09-19T10:14:33;1.27;;;0.73;;
58774;SDS011;44545;47.480;19.024;2023-09-19T10:17:40;1.23;;;0.65;;
58774;SDS011;44545;47.480;19.024;2023-09-19T10:20:46;3.17;;;0.60;;
58774;SDS011;44545;47.480;19.024;2023-09-19T10:23:49;1.30;;;0.50;;
58774;SDS011;44545;47.480;19.024;2023-09-19T10:26:54;3.37;;;0.73;;
58774;SDS011;44545;47.480;19.024;2023-09-19T10:29:57;2.28;;;0.95;;
58774;SDS011;44545;47.480;19.024;2023-09-19T10:33:02;1.30;;;0.70;;
58774;SDS011;44545;47.480;19.024;2023-09-19T10:36:06;1.50;;;0.82;;
58774;SDS011;44545;47.480;19.024;2023-09-19T10:39:10;0.73;;;0.60;;
58774;SDS011;44545;47.480;19.024;2023-09-19T10:42:18;1.08;;;0.73;;
58774;SDS011;44545;47.480;19.024;2023-09-19T10:45:22;0.62;;;0.50;;
58774;SDS011;44545;47.480;19.024;2023-09-19T10:48:28;1.00;;;0.60;;
58774;SDS011;44545;47.480;19.024;2023-09-19T10:51:31;2.10;;;0.90;;
58774;SDS011;44545;47.480;19.024;2023-09-19T10:54:42;2.25;;;1.17;;
58774;SDS011;44545;47.480;19.024;2023-09-19T10:57:53;1.92;;;1.12;;
58774;SDS011;44545;47.480;19.024;2023-09-19T11:00:56;2.28;;;1.00;;
58774;SDS011;44545;47.480;19.024;2023-09-19T11:04:22;4.12;;;1.50;;
58774;SDS011;44545;47.480;19.024;2023-09-19T11:07:32;1.37;;;0.95;;
58774;SDS011;44545;47.480;19.024;2023-09-19T11:11:06;5.12;;;1.10;;
58774;SDS011;44545;47.480;19.024;2023-09-19T11:15:03;1.90;;;0.90;;
58774;SDS011;44545;47.480;19.024;2023-09-19T11:21:54;1.45;;;0.90;;
58774;SDS011;44545;47.480;19.024;2023-09-19T11:24:56;1.30;;;0.90;;
58774;SDS011;44545;47.480;19.024;2023-09-19T11:28:43;1.05;;;0.43;;
58774;SDS011;44545;47.480;19.024;2023-09-19T11:31:46;0.75;;;0.32;;
58774;SDS011;44545;47.480;19.024;2023-09-19T11:34:50;1.20;;;0.52;;
58774;SDS011;44545;47.480;19.024;2023-09-19T11:47:32;0.98;;;0.20;;
58774;SDS011;44545;47.480;19.024;2023-09-19T11:50:37;0.93;;;0.40;;
58774;SDS011;44545;47.480;19.024;2023-09-19T11:53:46;2.90;;;0.43;;
58774;SDS011;44545;47.480;19.024;2023-09-19T11:56:52;0.25;;;0.20;;
58774;SDS011;44545;47.480;19.024;2023-09-19T11:59:56;1.12;;;0.50;;
58774;SDS011;44545;47.480;19.024;2023-09-19T12:03:01;1.08;;;0.47;;
58774;SDS011;44545;47.480;19.024;2023-09-19T12:06:11;1.25;;;0.55;;
58774;SDS011;44545;47.480;19.024;2023-09-19T12:09:19;1.23;;;0.40;;
58774;SDS011;44545;47.480;19.024;2023-09-19T12:12:23;0.43;;;0.20;;
58774;SDS011;44545;47.480;19.024;2023-09-19T12:15:29;2.85;;;0.82;;
58774;SDS011;44545;47.480;19.024;2023-09-19T12:18:40;1.62;;;0.88;;
58774;SDS011;44545;47.480;19.024;2023-09-19T12:21:53;1.48;;;0.88;;
58774;SDS011;44545;47.480;19.024;2023-09-19T12:25:05;8.32;;;1.00;;
58774;SDS011;44545;47.480;19.024;2023-09-19T12:28:09;0.85;;;0.70;;
58774;SDS011;44545;47.480;19.024;2023-09-19T12:31:13;1.20;;;0.80;;
58774;SDS011;44545;47.480;19.024;2023-09-19T12:34:21;1.30;;;0.75;;
58774;SDS011;44545;47.480;19.024;2023-09-19T12:37:29;1.30;;;0.70;;
58774;SDS011;44545;47.480;19.024;2023-09-19T12:40:32;3.85;;;0.80;;
58774;SDS011;44545;47.480;19.024;2023-09-19T12:43:38;0.73;;;0.60;;
58774;SDS011;44545;47.480;19.024;2023-09-19T12:46:44;1.77;;;1.10;;
58774;SDS011;44545;47.480;19.024;2023-09-19T12:53:14;1.37;;;0.73;;
58774;SDS011;44545;47.480;19.024;2023-09-19T12:56:27;3.25;;;0.90;;
58774;SDS011;44545;47.480;19.024;2023-09-19T12:59:31;1.17;;;0.73;;
58774;SDS011;44545;47.480;19.024;2023-09-19T13:02:34;1.05;;;0.55;;
58774;SDS011;44545;47.480;19.024;2023-09-19T13:05:46;1.10;;;0.43;;
58774;SDS011;44545;47.480;19.024;2023-09-19T13:09:09;1.08;;;0.68;;
58774;SDS011;44545;47.480;19.024;2023-09-19T13:15:51;2.75;;;0.30;;
58774;SDS011;44545;47.480;19.024;2023-09-19T13:18:54;1.40;;;0.70;;
58774;SDS011;44545;47.480;19.024;2023-09-19T13:21:59;1.33;;;0.90;;
58774;SDS011;44545;47.480;19.024;2023-09-19T13:25:02;5.00;;;1.02;;
58774;SDS011;44545;47.480;19.024;2023-09-19T13:28:06;0.65;;;0.43;;
58774;SDS011;44545;47.480;19.024;2023-09-19T13:31:09;2.35;;;0.80;;
58774;SDS011;44545;47.480;19.024;2023-09-19T13:34:13;4.60;;;0.80;;
58774;SDS011;44545;47.480;19.024;2023-09-19T13:37:18;2.47;;;1.40;;
58774;SDS011;44545;47.480;19.024;2023-09-19T13:40:20;1.73;;;0.80;;
58774;SDS011;44545;47.480;19.024;2023-09-19T13:43:23;0.65;;;0.50;;
58774;SDS011;44545;47.480;19.024;2023-09-19T13:46:27;1.55;;;0.77;;
58774;SDS011;44545;47.480;19.024;2023-09-19T13:49:29;1.70;;;0.80;;
58774;SDS011;44545;47.480;19.024;2023-09-19T13:52:34;1.27;;;0.85;;
58774;SDS011;44545;47.480;19.024;2023-09-19T13:55:36;1.40;;;0.62;;
58774;SDS011;44545;47.480;19.024;2023-09-19T13:58:40;2.12;;;0.80;;
58774;SDS011;44545;47.480;19.024;2023-09-19T14:01:44;1.62;;;0.62;;
58774;SDS011;44545;47.480;19.024;2023-09-19T14:04:47;1.80;;;0.70;;
58774;SDS011;44545;47.480;19.024;2023-09-19T14:07:49;5.32;;;0.80;;
58774;SDS011;44545;47.480;19.024;2023-09-19T14:10:52;2.40;;;1.35;;
58774;SDS011;44545;47.480;19.024;2023-09-19T14:13:55;1.58;;;0.88;;
58774;SDS011;44545;47.480;19.024;2023-09-19T14:16:59;1.27;;;0.80;;
58774;SDS011;44545;47.480;19.024;2023-09-19T14:20:03;2.12;;;0.90;;
58774;SDS011;44545;47.480;19.024;2023-09-19T14:23:05;3.40;;;0.85;;
58774;SDS011;44545;47.480;19.024;2023-09-19T14:26:08;4.37;;;0.82;;
58774;SDS011;44545;47.480;19.024;2023-09-19T14:29:11;1.62;;;0.75;;
58774;SDS011;44545;47.480;19.024;2023-09-19T14:32:15;1.00;;;0.60;;
58774;SDS011;44545;47.480;19.024;2023-09-19T14:35:17;1.05;;;0.77;;
58774;SDS011;44545;47.480;19.024;2023-09-19T14:38:20;1.42;;;0.93;;
58774;SDS011;44545;47.480;19.024;2023-09-19T14:41:22;1.10;;;0.70;;
58774;SDS011;44545;47.480;19.024;2023-09-19T14:44:27;1.62;;;0.80;;
58774;SDS011;44545;47.480;19.024;2023-09-19T14:47:30;2.65;;;0.50;;
58774;SDS011;44545;47.480;19.024;2023-09-19T14:50:34;1.17;;;0.80;;
58774;SDS011;44545;47.480;19.024;2023-09-19T14:53:36;4.70;;;0.85;;
58774;SDS011;44545;47.480;19.024;2023-09-19T14:56:42;1.62;;;0.80;;
58774;SDS011;44545;47.480;19.024;2023-09-19T14:59:46;2.20;;;1.03;;
58774;SDS011;44545;47.480;19.024;2023-09-19T15:02:49;2.17;;;0.80;;
58774;SDS011;44545;47.480;19.024;2023-09-19T15:05:58;1.17;;;0.70;;
58774;SDS011;44545;47.480;19.024;2023-09-19T15:09:02;1.83;;;0.57;;
58774;SDS011;44545;47.480;19.024;2023-09-19T15:12:07;2.72;;;1.20;;
58774;SDS011;44545;47.480;19.024;2023-09-19T15:15:09;1.62;;;0.80;;
58774;SDS011;44545;47.480;19.024;2023-09-19T15:18:12;1.83;;;0.88;;
